sensor_id;sensor_type;location;lat;lon;timestamp;P1;durP1;ratioP1;P2;durP2;ratioP2
3217;SDS011;1621;49.702;8.618;2024-03-29T00:00:22;3.13;;;1.07;;
3217;SDS011;1621;49.702;8.618;2024-03-29T00:02:47;2.70;;;1.33;;
3217;SDS011;1621;49.702;8.618;2024-03-29T00:05:12;3.77;;;1.17;;
3217;SDS011;1621;49.702;8.618;2024-03-29T00:07:38;3.20;;;1.00;;
3217;SDS011;1621;49.702;8.618;2024-03-29T00:10:03;2.50;;;0.90;;
3217;SDS011;1621;49.702;8.618;2024-03-29T00:12:28;5.50;;;1.10;;
3217;SDS011;1621;49.702;8.618;2024-03-29T00:14:54;4.13;;;1.30;;
3217;SDS011;1621;49.702;8.618;2024-03-29T00:17:19;2.00;;;1.10;;
3217;SDS011;1621;49.702;8.618;2024-03-29T00:19:44;2.23;;;1.10;;
3217;SDS011;1621;49.702;8.618;2024-03-29T00:22:09;4.90;;;1.30;;
3217;SDS011;1621;49.702;8.618;2024-03-29T00:24:35;5.17;;;1.30;;
3217;SDS011;1621;49.702;8.618;2024-03-29T00:27:00;2.90;;;0.90;;
3217;SDS011;1621;49.702;8.618;2024-03-29T00:29:26;4.00;;;1.70;;
3217;SDS011;1621;49.702;8.618;2024-03-29T00:31:51;2.90;;;1.00;;
3217;SDS011;1621;49.702;8.618;2024-03-29T00:34:17;5.60;;;1.40;;
3217;SDS011;1621;49.702;8.618;2024-03-29T00:36:42;3.90;;;1.27;;
3217;SDS011;1621;49.702;8.618;2024-03-29T00:39:07;3.30;;;1.00;;
3217;SDS011;1621;49.702;8.618;2024-03-29T00:41:33;3.03;;;1.20;;
3217;SDS011;1621;49.702;8.618;2024-03-29T00:43:58;5.37;;;1.60;;
3217;SDS011;1621;49.702;8.618;2024-03-29T00:46:24;2.03;;;1.00;;
3217;SDS011;1621;49.702;8.618;2024-03-29T00:48:49;2.27;;;1.07;;
3217;SDS011;1621;49.702;8.618;2024-03-29T00:51:14;6.83;;;1.37;;
3217;SDS011;1621;49.702;8.618;2024-03-29T00:53:40;2.97;;;1.30;;
3217;SDS011;1621;49.702;8.618;2024-03-29T00:56:05;2.93;;;1.00;;
3217;SDS011;1621;49.702;8.618;2024-03-29T00:58:30;2.50;;;1.23;;
3217;SDS011;1621;49.702;8.618;2024-03-29T01:00:55;3.93;;;2.03;;
3217;SDS011;1621;49.702;8.618;2024-03-29T01:03:21;2.63;;;1.07;;
3217;SDS011;1621;49.702;8.618;2024-03-29T01:05:46;2.97;;;1.00;;
3217;SDS011;1621;49.702;8.618;2024-03-29T01:08:11;2.83;;;1.37;;
3217;SDS011;1621;49.702;8.618;2024-03-29T01:10:37;2.10;;;0.97;;
3217;SDS011;1621;49.702;8.618;2024-03-29T01:13:02;2.23;;;0.97;;
3217;SDS011;1621;49.702;8.618;2024-03-29T01:15:27;4.47;;;1.10;;
3217;SDS011;1621;49.702;8.618;2024-03-29T01:17:53;3.73;;;1.40;;
3217;SDS011;1621;49.702;8.618;2024-03-29T01:20:18;5.83;;;1.50;;
3217;SDS011;1621;49.702;8.618;2024-03-29T01:22:43;3.47;;;1.10;;
3217;SDS011;1621;49.702;8.618;2024-03-29T01:25:09;2.53;;;1.07;;
3217;SDS011;1621;49.702;8.618;2024-03-29T01:27:34;2.63;;;1.20;;
3217;SDS011;1621;49.702;8.618;2024-03-29T01:29:59;2.47;;;1.13;;
3217;SDS011;1621;49.702;8.618;2024-03-29T01:32:25;2.40;;;1.00;;
3217;SDS011;1621;49.702;8.618;2024-03-29T01:34:50;5.80;;;1.10;;
3217;SDS011;1621;49.702;8.618;2024-03-29T01:37:15;3.37;;;1.23;;
3217;SDS011;1621;49.702;8.618;2024-03-29T01:39:41;2.83;;;0.80;;
3217;SDS011;1621;49.702;8.618;2024-03-29T01:42:06;2.40;;;1.10;;
3217;SDS011;1621;49.702;8.618;2024-03-29T01:44:31;2.13;;;1.20;;
3217;SDS011;1621;49.702;8.618;2024-03-29T01:46:57;3.70;;;1.03;;
3217;SDS011;1621;49.702;8.618;2024-03-29T01:49:24;4.13;;;1.00;;
3217;SDS011;1621;49.702;8.618;2024-03-29T01:51:50;4.03;;;1.30;;
3217;SDS011;1621;49.702;8.618;2024-03-29T01:54:17;3.70;;;1.10;;
3217;SDS011;1621;49.702;8.618;2024-03-29T01:56:43;2.60;;;1.30;;
3217;SDS011;1621;49.702;8.618;2024-03-29T01:59:12;2.73;;;1.00;;
3217;SDS011;1621;49.702;8.618;2024-03-29T02:01:38;2.50;;;1.10;;
3217;SDS011;1621;49.702;8.618;2024-03-29T02:04:06;3.77;;;1.07;;
3217;SDS011;1621;49.702;8.618;2024-03-29T02:06:32;2.67;;;1.13;;
3217;SDS011;1621;49.702;8.618;2024-03-29T02:08:58;3.63;;;1.10;;
3217;SDS011;1621;49.702;8.618;2024-03-29T02:11:25;3.07;;;1.20;;
3217;SDS011;1621;49.702;8.618;2024-03-29T02:13:51;1.93;;;1.00;;
3217;SDS011;1621;49.702;8.618;2024-03-29T02:16:18;4.60;;;1.10;;
3217;SDS011;1621;49.702;8.618;2024-03-29T02:18:44;2.20;;;1.03;;
3217;SDS011;1621;49.702;8.618;2024-03-29T02:21:10;3.67;;;1.40;;
3217;SDS011;1621;49.702;8.618;2024-03-29T02:23:37;1.90;;;0.90;;
3217;SDS011;1621;49.702;8.618;2024-03-29T02:26:03;2.80;;;1.00;;
3217;SDS011;1621;49.702;8.618;2024-03-29T02:28:30;2.33;;;1.00;;
3217;SDS011;1621;49.702;8.618;2024-03-29T02:30:56;2.40;;;0.90;;
3217;SDS011;1621;49.702;8.618;2024-03-29T02:33:23;2.90;;;1.17;;
3217;SDS011;1621;49.702;8.618;2024-03-29T02:35:49;4.17;;;1.33;;
3217;SDS011;1621;49.702;8.618;2024-03-29T02:38:15;2.00;;;1.10;;
3217;SDS011;1621;49.702;8.618;2024-03-29T02:40:41;3.93;;;1.30;;
3217;SDS011;1621;49.702;8.618;2024-03-29T02:43:07;4.13;;;1.40;;
3217;SDS011;1621;49.702;8.618;2024-03-29T02:45:34;2.27;;;1.30;;
3217;SDS011;1621;49.702;8.618;2024-03-29T02:48:01;2.70;;;1.20;;
3217;SDS011;1621;49.702;8.618;2024-03-29T02:50:26;2.60;;;1.30;;
3217;SDS011;1621;49.702;8.618;2024-03-29T02:52:52;4.47;;;1.40;;
3217;SDS011;1621;49.702;8.618;2024-03-29T02:55:17;2.60;;;1.20;;
3217;SDS011;1621;49.702;8.618;2024-03-29T02:57:43;2.27;;;1.00;;
3217;SDS011;1621;49.702;8.618;2024-03-29T03:00:09;2.00;;;1.03;;
3217;SDS011;1621;49.702;8.618;2024-03-29T03:02:38;2.57;;;1.10;;
3217;SDS011;1621;49.702;8.618;2024-03-29T03:05:04;2.10;;;1.00;;
3217;SDS011;1621;49.702;8.618;2024-03-29T03:07:30;1.80;;;0.80;;
3217;SDS011;1621;49.702;8.618;2024-03-29T03:10:14;2.40;;;1.20;;
3217;SDS011;1621;49.702;8.618;2024-03-29T03:12:58;3.77;;;1.27;;
3217;SDS011;1621;49.702;8.618;2024-03-29T03:15:24;2.57;;;1.23;;
3217;SDS011;1621;49.702;8.618;2024-03-29T03:17:50;2.40;;;1.20;;
3217;SDS011;1621;49.702;8.618;2024-03-29T03:20:16;1.87;;;0.90;;
3217;SDS011;1621;49.702;8.618;2024-03-29T03:22:42;2.50;;;1.10;;
3217;SDS011;1621;49.702;8.618;2024-03-29T03:25:07;2.50;;;1.20;;
3217;SDS011;1621;49.702;8.618;2024-03-29T03:27:34;2.20;;;1.17;;
3217;SDS011;1621;49.702;8.618;2024-03-29T03:29:59;2.67;;;1.10;;
3217;SDS011;1621;49.702;8.618;2024-03-29T03:32:25;2.47;;;0.90;;
3217;SDS011;1621;49.702;8.618;2024-03-29T03:34:50;2.70;;;0.80;;
3217;SDS011;1621;49.702;8.618;2024-03-29T03:37:17;1.83;;;1.00;;
3217;SDS011;1621;49.702;8.618;2024-03-29T03:39:42;2.60;;;1.10;;
3217;SDS011;1621;49.702;8.618;2024-03-29T03:42:08;3.40;;;1.20;;
3217;SDS011;1621;49.702;8.618;2024-03-29T03:44:33;2.13;;;0.90;;
3217;SDS011;1621;49.702;8.618;2024-03-29T03:47:00;2.93;;;1.13;;
3217;SDS011;1621;49.702;8.618;2024-03-29T03:49:25;3.67;;;1.23;;
3217;SDS011;1621;49.702;8.618;2024-03-29T03:51:51;3.40;;;1.00;;
3217;SDS011;1621;49.702;8.618;2024-03-29T03:54:17;2.17;;;0.97;;
3217;SDS011;1621;49.702;8.618;2024-03-29T03:56:43;2.33;;;1.03;;
3217;SDS011;1621;49.702;8.618;2024-03-29T03:59:08;2.23;;;1.20;;
3217;SDS011;1621;49.702;8.618;2024-03-29T04:01:34;2.30;;;0.97;;
3217;SDS011;1621;49.702;8.618;2024-03-29T04:04:00;2.47;;;1.20;;
3217;SDS011;1621;49.702;8.618;2024-03-29T04:06:26;3.60;;;1.10;;
3217;SDS011;1621;49.702;8.618;2024-03-29T04:08:51;2.37;;;1.13;;
3217;SDS011;1621;49.702;8.618;2024-03-29T04:11:17;4.27;;;1.13;;
3217;SDS011;1621;49.702;8.618;2024-03-29T04:13:44;3.23;;;1.10;;
3217;SDS011;1621;49.702;8.618;2024-03-29T04:16:11;2.80;;;1.27;;
3217;SDS011;1621;49.702;8.618;2024-03-29T04:18:36;2.93;;;1.10;;
3217;SDS011;1621;49.702;8.618;2024-03-29T04:21:03;2.57;;;1.10;;
3217;SDS011;1621;49.702;8.618;2024-03-29T04:23:28;4.90;;;1.43;;
3217;SDS011;1621;49.702;8.618;2024-03-29T04:25:55;2.27;;;1.13;;
3217;SDS011;1621;49.702;8.618;2024-03-29T04:28:20;3.80;;;1.10;;
3217;SDS011;1621;49.702;8.618;2024-03-29T04:30:53;1.90;;;0.90;;
3217;SDS011;1621;49.702;8.618;2024-03-29T04:33:18;2.13;;;1.13;;
3217;SDS011;1621;49.702;8.618;2024-03-29T04:35:55;3.60;;;1.10;;
3217;SDS011;1621;49.702;8.618;2024-03-29T04:38:21;2.60;;;1.03;;
3217;SDS011;1621;49.702;8.618;2024-03-29T04:40:51;1.73;;;0.90;;
3217;SDS011;1621;49.702;8.618;2024-03-29T04:43:18;2.80;;;1.00;;
3217;SDS011;1621;49.702;8.618;2024-03-29T04:45:44;3.20;;;1.20;;
3217;SDS011;1621;49.702;8.618;2024-03-29T04:48:11;3.10;;;0.90;;
3217;SDS011;1621;49.702;8.618;2024-03-29T04:50:37;2.93;;;0.90;;
3217;SDS011;1621;49.702;8.618;2024-03-29T04:53:04;2.23;;;0.90;;
3217;SDS011;1621;49.702;8.618;2024-03-29T04:55:30;2.03;;;0.93;;
3217;SDS011;1621;49.702;8.618;2024-03-29T04:57:56;1.87;;;0.90;;
3217;SDS011;1621;49.702;8.618;2024-03-29T05:00:22;2.67;;;0.93;;
3217;SDS011;1621;49.702;8.618;2024-03-29T05:02:49;2.27;;;1.10;;
3217;SDS011;1621;49.702;8.618;2024-03-29T05:05:15;3.13;;;0.80;;
3217;SDS011;1621;49.702;8.618;2024-03-29T05:07:41;3.67;;;1.40;;
3217;SDS011;1621;49.702;8.618;2024-03-29T05:10:07;2.13;;;1.00;;
3217;SDS011;1621;49.702;8.618;2024-03-29T05:12:34;2.40;;;1.20;;
3217;SDS011;1621;49.702;8.618;2024-03-29T05:15:01;2.40;;;1.10;;
3217;SDS011;1621;49.702;8.618;2024-03-29T05:17:27;2.50;;;1.00;;
3217;SDS011;1621;49.702;8.618;2024-03-29T05:19:54;2.67;;;1.07;;
3217;SDS011;1621;49.702;8.618;2024-03-29T05:22:20;2.10;;;0.80;;
3217;SDS011;1621;49.702;8.618;2024-03-29T05:24:46;2.10;;;0.90;;
3217;SDS011;1621;49.702;8.618;2024-03-29T05:27:13;2.57;;;0.77;;
3217;SDS011;1621;49.702;8.618;2024-03-29T05:29:39;2.80;;;0.90;;
3217;SDS011;1621;49.702;8.618;2024-03-29T05:32:06;1.70;;;0.80;;
3217;SDS011;1621;49.702;8.618;2024-03-29T05:34:33;3.70;;;1.03;;
3217;SDS011;1621;49.702;8.618;2024-03-29T05:36:59;2.53;;;1.10;;
3217;SDS011;1621;49.702;8.618;2024-03-29T05:39:25;5.37;;;0.80;;
3217;SDS011;1621;49.702;8.618;2024-03-29T05:41:51;1.90;;;0.80;;
3217;SDS011;1621;49.702;8.618;2024-03-29T05:44:18;1.80;;;0.90;;
3217;SDS011;1621;49.702;8.618;2024-03-29T05:46:44;2.63;;;1.10;;
3217;SDS011;1621;49.702;8.618;2024-03-29T05:49:10;2.07;;;0.90;;
3217;SDS011;1621;49.702;8.618;2024-03-29T05:51:37;2.40;;;0.90;;
3217;SDS011;1621;49.702;8.618;2024-03-29T05:54:04;2.40;;;0.90;;
3217;SDS011;1621;49.702;8.618;2024-03-29T05:56:30;2.00;;;1.00;;
3217;SDS011;1621;49.702;8.618;2024-03-29T05:58:56;2.07;;;0.90;;
3217;SDS011;1621;49.702;8.618;2024-03-29T06:01:23;2.47;;;0.97;;
3217;SDS011;1621;49.702;8.618;2024-03-29T06:03:49;2.77;;;1.10;;
3217;SDS011;1621;49.702;8.618;2024-03-29T06:06:17;3.70;;;0.97;;
3217;SDS011;1621;49.702;8.618;2024-03-29T06:08:47;2.45;;;0.90;;
3217;SDS011;1621;49.702;8.618;2024-03-29T06:11:13;1.90;;;0.90;;
3217;SDS011;1621;49.702;8.618;2024-03-29T06:13:39;2.57;;;0.90;;
3217;SDS011;1621;49.702;8.618;2024-03-29T06:16:25;2.40;;;0.90;;
3217;SDS011;1621;49.702;8.618;2024-03-29T06:19:09;3.30;;;1.10;;
3217;SDS011;1621;49.702;8.618;2024-03-29T06:21:35;2.37;;;1.10;;
3217;SDS011;1621;49.702;8.618;2024-03-29T06:24:08;2.90;;;1.33;;
3217;SDS011;1621;49.702;8.618;2024-03-29T06:26:37;3.70;;;1.10;;
3217;SDS011;1621;49.702;8.618;2024-03-29T06:29:03;2.33;;;0.93;;
3217;SDS011;1621;49.702;8.618;2024-03-29T06:31:29;2.40;;;1.20;;
3217;SDS011;1621;49.702;8.618;2024-03-29T06:33:57;2.03;;;1.03;;
3217;SDS011;1621;49.702;8.618;2024-03-29T06:36:23;1.90;;;1.00;;
3217;SDS011;1621;49.702;8.618;2024-03-29T06:38:50;2.67;;;1.17;;
3217;SDS011;1621;49.702;8.618;2024-03-29T06:41:16;3.30;;;1.00;;
3217;SDS011;1621;49.702;8.618;2024-03-29T06:43:42;2.73;;;1.30;;
3217;SDS011;1621;49.702;8.618;2024-03-29T06:46:09;2.50;;;1.13;;
3217;SDS011;1621;49.702;8.618;2024-03-29T06:48:36;2.70;;;1.07;;
3217;SDS011;1621;49.702;8.618;2024-03-29T06:51:02;2.90;;;1.23;;
3217;SDS011;1621;49.702;8.618;2024-03-29T06:53:29;3.63;;;1.40;;
3217;SDS011;1621;49.702;8.618;2024-03-29T06:55:55;2.53;;;1.20;;
3217;SDS011;1621;49.702;8.618;2024-03-29T06:58:22;3.13;;;1.27;;
3217;SDS011;1621;49.702;8.618;2024-03-29T07:00:48;2.50;;;1.30;;
3217;SDS011;1621;49.702;8.618;2024-03-29T07:03:15;2.93;;;1.40;;
3217;SDS011;1621;49.702;8.618;2024-03-29T07:05:42;3.13;;;1.60;;
3217;SDS011;1621;49.702;8.618;2024-03-29T07:08:08;8.03;;;1.90;;
3217;SDS011;1621;49.702;8.618;2024-03-29T07:10:34;2.77;;;1.43;;
3217;SDS011;1621;49.702;8.618;2024-03-29T07:13:00;3.40;;;1.67;;
3217;SDS011;1621;49.702;8.618;2024-03-29T07:18:14;3.10;;;1.33;;
3217;SDS011;1621;49.702;8.618;2024-03-29T07:20:48;2.63;;;1.30;;
3217;SDS011;1621;49.702;8.618;2024-03-29T07:23:15;3.33;;;1.60;;
3217;SDS011;1621;49.702;8.618;2024-03-29T07:25:43;4.20;;;1.30;;
3217;SDS011;1621;49.702;8.618;2024-03-29T07:28:10;4.60;;;1.57;;
3217;SDS011;1621;49.702;8.618;2024-03-29T07:30:39;3.70;;;1.50;;
3217;SDS011;1621;49.702;8.618;2024-03-29T07:33:05;3.00;;;1.33;;
3217;SDS011;1621;49.702;8.618;2024-03-29T07:35:34;2.80;;;1.40;;
3217;SDS011;1621;49.702;8.618;2024-03-29T07:38:00;3.37;;;1.50;;
3217;SDS011;1621;49.702;8.618;2024-03-29T07:40:26;2.80;;;1.30;;
3217;SDS011;1621;49.702;8.618;2024-03-29T07:42:52;2.90;;;1.33;;
3217;SDS011;1621;49.702;8.618;2024-03-29T07:45:19;3.67;;;1.60;;
3217;SDS011;1621;49.702;8.618;2024-03-29T07:47:45;3.90;;;1.50;;
3217;SDS011;1621;49.702;8.618;2024-03-29T07:50:14;2.77;;;1.27;;
3217;SDS011;1621;49.702;8.618;2024-03-29T07:52:41;5.10;;;2.03;;
3217;SDS011;1621;49.702;8.618;2024-03-29T07:55:07;4.07;;;2.17;;
3217;SDS011;1621;49.702;8.618;2024-03-29T07:57:35;4.50;;;2.07;;
3217;SDS011;1621;49.702;8.618;2024-03-29T08:00:01;2.93;;;1.50;;
3217;SDS011;1621;49.702;8.618;2024-03-29T08:02:29;2.70;;;1.70;;
3217;SDS011;1621;49.702;8.618;2024-03-29T08:04:56;4.90;;;2.20;;
3217;SDS011;1621;49.702;8.618;2024-03-29T08:07:22;5.47;;;2.63;;
3217;SDS011;1621;49.702;8.618;2024-03-29T08:09:49;5.13;;;2.80;;
3217;SDS011;1621;49.702;8.618;2024-03-29T08:12:15;3.47;;;2.23;;
3217;SDS011;1621;49.702;8.618;2024-03-29T08:14:41;4.03;;;2.53;;
3217;SDS011;1621;49.702;8.618;2024-03-29T08:17:07;9.60;;;3.30;;
3217;SDS011;1621;49.702;8.618;2024-03-29T08:19:39;7.60;;;2.57;;
3217;SDS011;1621;49.702;8.618;2024-03-29T08:22:06;8.70;;;2.53;;
3217;SDS011;1621;49.702;8.618;2024-03-29T08:24:35;3.90;;;2.00;;
3217;SDS011;1621;49.702;8.618;2024-03-29T08:27:01;4.10;;;2.10;;
3217;SDS011;1621;49.702;8.618;2024-03-29T08:29:27;3.03;;;1.80;;
3217;SDS011;1621;49.702;8.618;2024-03-29T08:31:54;3.33;;;1.90;;
3217;SDS011;1621;49.702;8.618;2024-03-29T08:34:20;3.97;;;2.00;;
3217;SDS011;1621;49.702;8.618;2024-03-29T08:36:46;3.70;;;1.50;;
3217;SDS011;1621;49.702;8.618;2024-03-29T08:39:13;3.50;;;1.70;;
3217;SDS011;1621;49.702;8.618;2024-03-29T08:41:41;3.67;;;1.80;;
3217;SDS011;1621;49.702;8.618;2024-03-29T08:44:09;4.33;;;2.00;;
3217;SDS011;1621;49.702;8.618;2024-03-29T08:46:35;3.13;;;1.70;;
3217;SDS011;1621;49.702;8.618;2024-03-29T08:49:02;3.00;;;1.50;;
3217;SDS011;1621;49.702;8.618;2024-03-29T08:51:28;3.40;;;1.43;;
3217;SDS011;1621;49.702;8.618;2024-03-29T08:53:54;3.60;;;1.50;;
3217;SDS011;1621;49.702;8.618;2024-03-29T08:56:22;2.53;;;1.13;;
3217;SDS011;1621;49.702;8.618;2024-03-29T08:58:49;3.03;;;1.20;;
3217;SDS011;1621;49.702;8.618;2024-03-29T09:01:15;2.30;;;1.23;;
3217;SDS011;1621;49.702;8.618;2024-03-29T09:03:41;3.30;;;1.03;;
3217;SDS011;1621;49.702;8.618;2024-03-29T09:06:08;2.50;;;1.30;;
3217;SDS011;1621;49.702;8.618;2024-03-29T09:08:34;2.83;;;1.40;;
3217;SDS011;1621;49.702;8.618;2024-03-29T09:11:00;2.93;;;1.20;;
3217;SDS011;1621;49.702;8.618;2024-03-29T09:13:28;5.63;;;1.20;;
3217;SDS011;1621;49.702;8.618;2024-03-29T09:15:55;3.13;;;1.20;;
3217;SDS011;1621;49.702;8.618;2024-03-29T09:18:21;4.40;;;1.30;;
3217;SDS011;1621;49.702;8.618;2024-03-29T09:20:57;3.50;;;1.43;;
3217;SDS011;1621;49.702;8.618;2024-03-29T09:23:25;2.50;;;1.23;;
3217;SDS011;1621;49.702;8.618;2024-03-29T09:25:53;5.40;;;1.50;;
3217;SDS011;1621;49.702;8.618;2024-03-29T09:28:19;3.30;;;1.30;;
3217;SDS011;1621;49.702;8.618;2024-03-29T09:30:47;3.23;;;1.37;;
3217;SDS011;1621;49.702;8.618;2024-03-29T09:33:13;3.03;;;1.20;;
3217;SDS011;1621;49.702;8.618;2024-03-29T09:35:39;3.20;;;1.40;;
3217;SDS011;1621;49.702;8.618;2024-03-29T09:38:05;3.90;;;1.20;;
3217;SDS011;1621;49.702;8.618;2024-03-29T09:40:32;5.60;;;1.20;;
3217;SDS011;1621;49.702;8.618;2024-03-29T09:43:02;4.37;;;2.17;;
3217;SDS011;1621;49.702;8.618;2024-03-29T09:45:30;6.10;;;1.70;;
3217;SDS011;1621;49.702;8.618;2024-03-29T09:47:57;3.10;;;1.33;;
3217;SDS011;1621;49.702;8.618;2024-03-29T09:50:24;4.47;;;2.10;;
3217;SDS011;1621;49.702;8.618;2024-03-29T09:52:50;6.17;;;2.90;;
3217;SDS011;1621;49.702;8.618;2024-03-29T09:55:18;5.03;;;2.43;;
3217;SDS011;1621;49.702;8.618;2024-03-29T09:57:45;3.80;;;1.52;;
3217;SDS011;1621;49.702;8.618;2024-03-29T10:00:11;5.00;;;2.43;;
3217;SDS011;1621;49.702;8.618;2024-03-29T10:02:37;3.50;;;1.50;;
3217;SDS011;1621;49.702;8.618;2024-03-29T10:05:04;4.80;;;1.60;;
3217;SDS011;1621;49.702;8.618;2024-03-29T10:07:32;4.83;;;1.80;;
3217;SDS011;1621;49.702;8.618;2024-03-29T10:10:01;5.80;;;1.50;;
3217;SDS011;1621;49.702;8.618;2024-03-29T10:12:27;2.60;;;1.40;;
3217;SDS011;1621;49.702;8.618;2024-03-29T10:14:53;3.00;;;1.40;;
3217;SDS011;1621;49.702;8.618;2024-03-29T10:17:28;4.57;;;1.70;;
3217;SDS011;1621;49.702;8.618;2024-03-29T10:19:54;4.43;;;1.37;;
3217;SDS011;1621;49.702;8.618;2024-03-29T10:22:20;3.50;;;1.70;;
3217;SDS011;1621;49.702;8.618;2024-03-29T10:24:46;5.10;;;2.10;;
3217;SDS011;1621;49.702;8.618;2024-03-29T10:27:14;3.27;;;1.57;;
3217;SDS011;1621;49.702;8.618;2024-03-29T10:29:40;3.00;;;1.37;;
3217;SDS011;1621;49.702;8.618;2024-03-29T10:32:06;3.33;;;1.80;;
3217;SDS011;1621;49.702;8.618;2024-03-29T10:34:33;3.80;;;1.60;;
3217;SDS011;1621;49.702;8.618;2024-03-29T10:37:04;5.00;;;1.57;;
3217;SDS011;1621;49.702;8.618;2024-03-29T10:39:30;3.40;;;1.53;;
3217;SDS011;1621;49.702;8.618;2024-03-29T10:41:56;3.33;;;1.73;;
3217;SDS011;1621;49.702;8.618;2024-03-29T10:44:23;2.90;;;1.33;;
3217;SDS011;1621;49.702;8.618;2024-03-29T10:46:50;2.83;;;1.53;;
3217;SDS011;1621;49.702;8.618;2024-03-29T10:49:16;3.27;;;1.67;;
3217;SDS011;1621;49.702;8.618;2024-03-29T10:51:43;3.23;;;1.47;;
3217;SDS011;1621;49.702;8.618;2024-03-29T10:54:10;4.03;;;1.60;;
3217;SDS011;1621;49.702;8.618;2024-03-29T10:56:35;5.10;;;1.60;;
3217;SDS011;1621;49.702;8.618;2024-03-29T11:01:49;3.10;;;1.47;;
3217;SDS011;1621;49.702;8.618;2024-03-29T11:04:20;3.70;;;1.80;;
3217;SDS011;1621;49.702;8.618;2024-03-29T11:06:49;3.50;;;1.40;;
3217;SDS011;1621;49.702;8.618;2024-03-29T11:09:17;5.53;;;2.23;;
3217;SDS011;1621;49.702;8.618;2024-03-29T11:11:46;3.27;;;1.40;;
3217;SDS011;1621;49.702;8.618;2024-03-29T11:14:20;4.57;;;1.50;;
3217;SDS011;1621;49.702;8.618;2024-03-29T11:16:46;2.83;;;1.40;;
3217;SDS011;1621;49.702;8.618;2024-03-29T11:19:16;4.67;;;1.70;;
3217;SDS011;1621;49.702;8.618;2024-03-29T11:21:42;5.40;;;1.93;;
3217;SDS011;1621;49.702;8.618;2024-03-29T11:24:13;5.00;;;2.07;;
3217;SDS011;1621;49.702;8.618;2024-03-29T11:26:39;3.90;;;1.80;;
3217;SDS011;1621;49.702;8.618;2024-03-29T11:29:06;3.70;;;1.73;;
3217;SDS011;1621;49.702;8.618;2024-03-29T11:31:37;3.33;;;1.50;;
3217;SDS011;1621;49.702;8.618;2024-03-29T11:34:08;4.73;;;2.10;;
3217;SDS011;1621;49.702;8.618;2024-03-29T11:36:34;7.90;;;1.57;;
3217;SDS011;1621;49.702;8.618;2024-03-29T11:39:00;2.93;;;1.40;;
3217;SDS011;1621;49.702;8.618;2024-03-29T11:41:27;3.20;;;1.60;;
3217;SDS011;1621;49.702;8.618;2024-03-29T11:43:59;3.23;;;1.40;;
3217;SDS011;1621;49.702;8.618;2024-03-29T11:46:58;4.23;;;1.67;;
3217;SDS011;1621;49.702;8.618;2024-03-29T11:49:37;4.30;;;2.20;;
3217;SDS011;1621;49.702;8.618;2024-03-29T11:52:04;5.90;;;1.83;;
3217;SDS011;1621;49.702;8.618;2024-03-29T11:54:37;3.13;;;1.37;;
3217;SDS011;1621;49.702;8.618;2024-03-29T11:57:04;3.70;;;1.90;;
3217;SDS011;1621;49.702;8.618;2024-03-29T11:59:30;3.70;;;1.53;;
3217;SDS011;1621;49.702;8.618;2024-03-29T12:01:56;4.00;;;1.90;;
3217;SDS011;1621;49.702;8.618;2024-03-29T12:04:22;3.10;;;1.50;;
3217;SDS011;1621;49.702;8.618;2024-03-29T12:06:49;3.57;;;1.73;;
3217;SDS011;1621;49.702;8.618;2024-03-29T12:09:15;2.80;;;1.40;;
3217;SDS011;1621;49.702;8.618;2024-03-29T12:11:45;4.33;;;1.70;;
3217;SDS011;1621;49.702;8.618;2024-03-29T12:14:12;3.60;;;1.90;;
3217;SDS011;1621;49.702;8.618;2024-03-29T12:16:44;4.60;;;2.37;;
3217;SDS011;1621;49.702;8.618;2024-03-29T12:19:23;3.70;;;1.70;;
3217;SDS011;1621;49.702;8.618;2024-03-29T12:21:50;3.33;;;1.77;;
3217;SDS011;1621;49.702;8.618;2024-03-29T12:24:17;2.97;;;1.60;;
3217;SDS011;1621;49.702;8.618;2024-03-29T12:26:43;5.20;;;2.03;;
3217;SDS011;1621;49.702;8.618;2024-03-29T12:29:09;3.80;;;2.07;;
3217;SDS011;1621;49.702;8.618;2024-03-29T12:31:36;4.80;;;1.87;;
3217;SDS011;1621;49.702;8.618;2024-03-29T12:34:04;6.13;;;1.97;;
3217;SDS011;1621;49.702;8.618;2024-03-29T12:36:32;4.03;;;1.90;;
3217;SDS011;1621;49.702;8.618;2024-03-29T12:38:58;4.47;;;2.40;;
3217;SDS011;1621;49.702;8.618;2024-03-29T12:41:30;6.20;;;2.63;;
3217;SDS011;1621;49.702;8.618;2024-03-29T12:43:57;3.93;;;2.20;;
3217;SDS011;1621;49.702;8.618;2024-03-29T12:46:23;7.53;;;2.10;;
3217;SDS011;1621;49.702;8.618;2024-03-29T12:48:56;4.17;;;2.20;;
3217;SDS011;1621;49.702;8.618;2024-03-29T12:51:22;5.10;;;2.37;;
3217;SDS011;1621;49.702;8.618;2024-03-29T12:53:49;5.23;;;2.63;;
3217;SDS011;1621;49.702;8.618;2024-03-29T12:56:15;4.30;;;2.33;;
3217;SDS011;1621;49.702;8.618;2024-03-29T12:58:42;4.40;;;2.43;;
3217;SDS011;1621;49.702;8.618;2024-03-29T13:01:08;5.13;;;2.60;;
3217;SDS011;1621;49.702;8.618;2024-03-29T13:03:35;4.10;;;2.50;;
3217;SDS011;1621;49.702;8.618;2024-03-29T13:06:03;4.47;;;2.83;;
3217;SDS011;1621;49.702;8.618;2024-03-29T13:08:29;8.33;;;3.43;;
3217;SDS011;1621;49.702;8.618;2024-03-29T13:10:55;4.90;;;2.30;;
3217;SDS011;1621;49.702;8.618;2024-03-29T13:13:22;5.23;;;2.60;;
3217;SDS011;1621;49.702;8.618;2024-03-29T13:15:48;4.03;;;2.17;;
3217;SDS011;1621;49.702;8.618;2024-03-29T13:18:15;5.87;;;2.80;;
3217;SDS011;1621;49.702;8.618;2024-03-29T13:20:43;7.50;;;3.30;;
3217;SDS011;1621;49.702;8.618;2024-03-29T13:23:10;4.73;;;2.40;;
3217;SDS011;1621;49.702;8.618;2024-03-29T13:25:36;4.40;;;2.33;;
3217;SDS011;1621;49.702;8.618;2024-03-29T13:28:03;4.50;;;2.93;;
3217;SDS011;1621;49.702;8.618;2024-03-29T13:30:29;6.10;;;2.80;;
3217;SDS011;1621;49.702;8.618;2024-03-29T13:32:55;6.17;;;3.23;;
3217;SDS011;1621;49.702;8.618;2024-03-29T13:35:21;6.73;;;2.90;;
3217;SDS011;1621;49.702;8.618;2024-03-29T13:37:48;4.73;;;3.10;;
3217;SDS011;1621;49.702;8.618;2024-03-29T13:40:15;6.23;;;2.70;;
3217;SDS011;1621;49.702;8.618;2024-03-29T13:42:42;5.63;;;3.10;;
3217;SDS011;1621;49.702;8.618;2024-03-29T13:45:09;4.87;;;2.93;;
3217;SDS011;1621;49.702;8.618;2024-03-29T13:47:36;5.67;;;2.53;;
3217;SDS011;1621;49.702;8.618;2024-03-29T13:50:03;6.07;;;3.10;;
3217;SDS011;1621;49.702;8.618;2024-03-29T13:52:30;3.90;;;2.60;;
3217;SDS011;1621;49.702;8.618;2024-03-29T13:54:56;4.40;;;2.70;;
3217;SDS011;1621;49.702;8.618;2024-03-29T13:57:22;7.70;;;3.03;;
3217;SDS011;1621;49.702;8.618;2024-03-29T13:59:49;5.60;;;2.80;;
3217;SDS011;1621;49.702;8.618;2024-03-29T14:02:15;4.70;;;2.70;;
3217;SDS011;1621;49.702;8.618;2024-03-29T14:04:43;5.50;;;2.67;;
3217;SDS011;1621;49.702;8.618;2024-03-29T14:07:10;4.60;;;2.57;;
3217;SDS011;1621;49.702;8.618;2024-03-29T14:09:37;4.77;;;2.90;;
3217;SDS011;1621;49.702;8.618;2024-03-29T14:12:04;7.60;;;2.10;;
3217;SDS011;1621;49.702;8.618;2024-03-29T14:14:30;5.00;;;2.07;;
3217;SDS011;1621;49.702;8.618;2024-03-29T14:16:57;3.73;;;1.90;;
3217;SDS011;1621;49.702;8.618;2024-03-29T14:19:23;3.57;;;1.97;;
3217;SDS011;1621;49.702;8.618;2024-03-29T14:21:51;4.80;;;1.90;;
3217;SDS011;1621;49.702;8.618;2024-03-29T14:24:17;4.07;;;1.60;;
3217;SDS011;1621;49.702;8.618;2024-03-29T14:26:44;3.27;;;1.60;;
3217;SDS011;1621;49.702;8.618;2024-03-29T14:29:10;3.20;;;1.50;;
3217;SDS011;1621;49.702;8.618;2024-03-29T14:31:37;3.57;;;1.97;;
3217;SDS011;1621;49.702;8.618;2024-03-29T14:34:04;5.00;;;1.90;;
3217;SDS011;1621;49.702;8.618;2024-03-29T14:36:30;5.07;;;2.60;;
3217;SDS011;1621;49.702;8.618;2024-03-29T14:38:57;3.63;;;1.90;;
3217;SDS011;1621;49.702;8.618;2024-03-29T14:41:25;3.30;;;1.70;;
3217;SDS011;1621;49.702;8.618;2024-03-29T14:43:52;3.40;;;1.57;;
3217;SDS011;1621;49.702;8.618;2024-03-29T14:46:18;3.67;;;1.50;;
3217;SDS011;1621;49.702;8.618;2024-03-29T14:48:46;3.57;;;1.80;;
3217;SDS011;1621;49.702;8.618;2024-03-29T14:51:12;4.00;;;1.70;;
3217;SDS011;1621;49.702;8.618;2024-03-29T14:53:38;2.97;;;1.40;;
3217;SDS011;1621;49.702;8.618;2024-03-29T14:56:04;2.90;;;1.57;;
3217;SDS011;1621;49.702;8.618;2024-03-29T14:58:31;2.80;;;1.50;;
3217;SDS011;1621;49.702;8.618;2024-03-29T15:00:57;3.10;;;1.30;;
3217;SDS011;1621;49.702;8.618;2024-03-29T15:03:23;2.73;;;1.20;;
3217;SDS011;1621;49.702;8.618;2024-03-29T15:05:50;3.27;;;1.40;;
3217;SDS011;1621;49.702;8.618;2024-03-29T15:08:16;2.63;;;1.10;;
3217;SDS011;1621;49.702;8.618;2024-03-29T15:10:43;3.07;;;1.30;;
3217;SDS011;1621;49.702;8.618;2024-03-29T15:13:09;8.30;;;1.35;;
3217;SDS011;1621;49.702;8.618;2024-03-29T15:15:35;2.97;;;1.00;;
3217;SDS011;1621;49.702;8.618;2024-03-29T15:18:05;3.13;;;1.10;;